sensor_id;sensor_type;location;lat;lon;timestamp;temperature;humidity
14031;DHT22;7090;49.436;8.490;2023-11-21T00:00:13;9.40;99.90
14031;DHT22;7090;49.436;8.490;2023-11-21T00:02:39;9.40;99.90
14031;DHT22;7090;49.436;8.490;2023-11-21T00:05:08;9.50;99.90
14031;DHT22;7090;49.436;8.490;2023-11-21T00:07:35;9.40;99.90
14031;DHT22;7090;49.436;8.490;2023-11-21T00:10:01;9.40;99.90
14031;DHT22;7090;49.436;8.490;2023-11-21T00:12:28;9.40;99.90
14031;DHT22;7090;49.436;8.490;2023-11-21T00:14:55;9.40;99.90
14031;DHT22;7090;49.436;8.490;2023-11-21T00:17:20;9.50;99.90
14031;DHT22;7090;49.436;8.490;2023-11-21T00:19:46;9.50;99.90
14031;DHT22;7090;49.436;8.490;2023-11-21T00:22:11;9.50;99.90
14031;DHT22;7090;49.436;8.490;2023-11-21T00:24:37;9.50;99.90
14031;DHT22;7090;49.436;8.490;2023-11-21T00:27:03;9.50;99.90
14031;DHT22;7090;49.436;8.490;2023-11-21T00:29:29;9.50;99.90
14031;DHT22;7090;49.436;8.490;2023-11-21T00:31:54;9.40;99.90
14031;DHT22;7090;49.436;8.490;2023-11-21T00:34:20;9.50;99.90
14031;DHT22;7090;49.436;8.490;2023-11-21T00:36:45;9.50;99.90
14031;DHT22;7090;49.436;8.490;2023-11-21T00:39:11;9.40;99.90
14031;DHT22;7090;49.436;8.490;2023-11-21T00:41:37;9.40;99.90
14031;DHT22;7090;49.436;8.490;2023-11-21T00:44:03;9.40;99.90
14031;DHT22;7090;49.436;8.490;2023-11-21T00:46:29;9.40;99.90
14031;DHT22;7090;49.436;8.490;2023-11-21T00:48:55;9.40;99.90
14031;DHT22;7090;49.436;8.490;2023-11-21T00:51:21;9.40;99.90
14031;DHT22;7090;49.436;8.490;2023-11-21T00:53:47;9.40;99.90
14031;DHT22;7090;49.436;8.490;2023-11-21T00:56:13;9.40;99.90
14031;DHT22;7090;49.436;8.490;2023-11-21T00:58:39;9.40;99.90
14031;DHT22;7090;49.436;8.490;2023-11-21T01:01:08;9.40;99.90
14031;DHT22;7090;49.436;8.490;2023-11-21T01:03:33;9.50;99.90
14031;DHT22;7090;49.436;8.490;2023-11-21T01:05:59;9.50;99.90
14031;DHT22;7090;49.436;8.490;2023-11-21T01:08:24;9.50;99.90
14031;DHT22;7090;49.436;8.490;2023-11-21T01:10:50;9.50;99.90
14031;DHT22;7090;49.436;8.490;2023-11-21T01:13:16;9.50;99.90
14031;DHT22;7090;49.436;8.490;2023-11-21T01:15:42;9.50;99.90
14031;DHT22;7090;49.436;8.490;2023-11-21T01:18:07;9.50;99.90
14031;DHT22;7090;49.436;8.490;2023-11-21T01:20:34;9.50;99.90
14031;DHT22;7090;49.436;8.490;2023-11-21T01:22:59;9.50;99.90
14031;DHT22;7090;49.436;8.490;2023-11-21T01:25:25;9.50;99.90
14031;DHT22;7090;49.436;8.490;2023-11-21T01:27:51;9.50;99.90
14031;DHT22;7090;49.436;8.490;2023-11-21T01:30:17;9.50;99.90
14031;DHT22;7090;49.436;8.490;2023-11-21T01:32:43;9.50;99.90
14031;DHT22;7090;49.436;8.490;2023-11-21T01:35:09;9.60;99.90
14031;DHT22;7090;49.436;8.490;2023-11-21T01:37:36;9.60;99.90
14031;DHT22;7090;49.436;8.490;2023-11-21T01:40:02;9.60;99.90
14031;DHT22;7090;49.436;8.490;2023-11-21T01:42:28;9.60;99.90
14031;DHT22;7090;49.436;8.490;2023-11-21T01:44:54;9.60;99.90
14031;DHT22;7090;49.436;8.490;2023-11-21T01:47:20;9.60;99.90
14031;DHT22;7090;49.436;8.490;2023-11-21T01:49:47;9.60;99.90
14031;DHT22;7090;49.436;8.490;2023-11-21T01:52:13;9.60;99.90
14031;DHT22;7090;49.436;8.490;2023-11-21T01:54:38;9.60;99.90
14031;DHT22;7090;49.436;8.490;2023-11-21T01:57:05;9.60;99.90
14031;DHT22;7090;49.436;8.490;2023-11-21T01:59:35;9.60;99.90
14031;DHT22;7090;49.436;8.490;2023-11-21T02:02:05;9.60;99.90
14031;DHT22;7090;49.436;8.490;2023-11-21T02:04:35;9.60;99.90
14031;DHT22;7090;49.436;8.490;2023-11-21T02:07:02;9.70;99.90
14031;DHT22;7090;49.436;8.490;2023-11-21T02:09:31;9.60;99.90
14031;DHT22;7090;49.436;8.490;2023-11-21T02:11:57;9.60;99.90
14031;DHT22;7090;49.436;8.490;2023-11-21T02:14:27;9.70;99.90
14031;DHT22;7090;49.436;8.490;2023-11-21T02:16:54;9.60;99.90
14031;DHT22;7090;49.436;8.490;2023-11-21T02:19:21;9.60;99.90
14031;DHT22;7090;49.436;8.490;2023-11-21T02:21:56;9.70;99.90
14031;DHT22;7090;49.436;8.490;2023-11-21T02:24:28;9.60;99.90
14031;DHT22;7090;49.436;8.490;2023-11-21T02:26:54;9.70;99.90
14031;DHT22;7090;49.436;8.490;2023-11-21T02:29:20;9.70;99.90
14031;DHT22;7090;49.436;8.490;2023-11-21T02:31:54;9.70;99.90
14031;DHT22;7090;49.436;8.490;2023-11-21T02:34:20;9.70;99.90
14031;DHT22;7090;49.436;8.490;2023-11-21T02:36:46;9.70;99.90
14031;DHT22;7090;49.436;8.490;2023-11-21T02:39:15;9.70;99.90
14031;DHT22;7090;49.436;8.490;2023-11-21T02:41:42;9.70;99.90
14031;DHT22;7090;49.436;8.490;2023-11-21T02:44:08;9.60;99.90
14031;DHT22;7090;49.436;8.490;2023-11-21T02:46:35;9.70;99.90
14031;DHT22;7090;49.436;8.490;2023-11-21T02:49:05;9.70;99.90
14031;DHT22;7090;49.436;8.490;2023-11-21T02:51:36;9.70;99.90
14031;DHT22;7090;49.436;8.490;2023-11-21T02:54:03;9.70;99.90
14031;DHT22;7090;49.436;8.490;2023-11-21T02:56:32;9.60;99.90
14031;DHT22;7090;49.436;8.490;2023-11-21T02:58:59;9.60;99.90
14031;DHT22;7090;49.436;8.490;2023-11-21T03:01:25;9.60;99.90
14031;DHT22;7090;49.436;8.490;2023-11-21T03:03:51;9.60;99.90
14031;DHT22;7090;49.436;8.490;2023-11-21T03:06:18;9.70;99.90
14031;DHT22;7090;49.436;8.490;2023-11-21T03:08:44;9.60;99.90
14031;DHT22;7090;49.436;8.490;2023-11-21T03:11:09;9.60;99.90
14031;DHT22;7090;49.436;8.490;2023-11-21T03:13:35;9.60;99.90
14031;DHT22;7090;49.436;8.490;2023-11-21T03:16:00;9.60;99.90
14031;DHT22;7090;49.436;8.490;2023-11-21T03:18:26;9.60;99.90
14031;DHT22;7090;49.436;8.490;2023-11-21T03:20:53;9.60;99.90
14031;DHT22;7090;49.436;8.490;2023-11-21T03:23:19;9.60;99.90
14031;DHT22;7090;49.436;8.490;2023-11-21T03:25:45;9.60;99.90
14031;DHT22;7090;49.436;8.490;2023-11-21T03:28:10;9.60;99.90
14031;DHT22;7090;49.436;8.490;2023-11-21T03:30:36;9.60;99.90
14031;DHT22;7090;49.436;8.490;2023-11-21T03:33:01;9.60;99.90
14031;DHT22;7090;49.436;8.490;2023-11-21T03:35:27;9.60;99.90
14031;DHT22;7090;49.436;8.490;2023-11-21T03:37:53;9.60;99.90
14031;DHT22;7090;49.436;8.490;2023-11-21T03:40:19;9.60;99.90
14031;DHT22;7090;49.436;8.490;2023-11-21T03:42:46;9.60;99.90
14031;DHT22;7090;49.436;8.490;2023-11-21T03:45:12;9.60;99.90
14031;DHT22;7090;49.436;8.490;2023-11-21T03:47:38;9.60;99.90
14031;DHT22;7090;49.436;8.490;2023-11-21T03:50:04;9.60;99.90
14031;DHT22;7090;49.436;8.490;2023-11-21T03:52:30;9.60;99.90
14031;DHT22;7090;49.436;8.490;2023-11-21T03:54:56;9.60;99.90
14031;DHT22;7090;49.436;8.490;2023-11-21T03:57:21;9.60;99.90
14031;DHT22;7090;49.436;8.490;2023-11-21T03:59:47;9.60;99.90
14031;DHT22;7090;49.436;8.490;2023-11-21T04:02:13;9.60;99.90
14031;DHT22;7090;49.436;8.490;2023-11-21T04:04:38;9.60;99.90
14031;DHT22;7090;49.436;8.490;2023-11-21T04:07:05;9.60;99.90
14031;DHT22;7090;49.436;8.490;2023-11-21T04:09:30;9.60;99.90
14031;DHT22;7090;49.436;8.490;2023-11-21T04:11:56;9.60;99.90
14031;DHT22;7090;49.436;8.490;2023-11-21T04:14:22;9.60;99.90
14031;DHT22;7090;49.436;8.490;2023-11-21T04:16:48;9.60;99.90
14031;DHT22;7090;49.436;8.490;2023-11-21T04:19:14;9.60;99.90
14031;DHT22;7090;49.436;8.490;2023-11-21T04:21:40;9.60;99.90
14031;DHT22;7090;49.436;8.490;2023-11-21T04:24:06;9.50;99.90
14031;DHT22;7090;49.436;8.490;2023-11-21T04:26:32;9.50;99.90
14031;DHT22;7090;49.436;8.490;2023-11-21T04:28:58;9.50;99.90
14031;DHT22;7090;49.436;8.490;2023-11-21T04:31:23;9.50;99.90
14031;DHT22;7090;49.436;8.490;2023-11-21T04:33:49;9.50;99.90
14031;DHT22;7090;49.436;8.490;2023-11-21T04:36:14;9.50;99.90
14031;DHT22;7090;49.436;8.490;2023-11-21T04:38:40;9.50;99.90
14031;DHT22;7090;49.436;8.490;2023-11-21T04:41:07;9.50;99.90
14031;DHT22;7090;49.436;8.490;2023-11-21T04:43:32;9.50;99.90
14031;DHT22;7090;49.436;8.490;2023-11-21T04:45:58;9.50;99.90
14031;DHT22;7090;49.436;8.490;2023-11-21T04:48:24;9.50;99.90
14031;DHT22;7090;49.436;8.490;2023-11-21T04:50:49;9.50;99.90
14031;DHT22;7090;49.436;8.490;2023-11-21T04:53:15;9.50;99.90
14031;DHT22;7090;49.436;8.490;2023-11-21T04:55:41;9.50;99.90
14031;DHT22;7090;49.436;8.490;2023-11-21T04:58:07;9.50;99.90
14031;DHT22;7090;49.436;8.490;2023-11-21T05:00:33;9.50;99.90
14031;DHT22;7090;49.436;8.490;2023-11-21T05:02:59;9.50;99.90
14031;DHT22;7090;49.436;8.490;2023-11-21T05:05:26;9.50;99.90
14031;DHT22;7090;49.436;8.490;2023-11-21T05:07:52;9.50;99.90
14031;DHT22;7090;49.436;8.490;2023-11-21T05:10:19;9.50;99.90
14031;DHT22;7090;49.436;8.490;2023-11-21T05:12:45;9.50;99.90
14031;DHT22;7090;49.436;8.490;2023-11-21T05:15:14;9.60;99.90
14031;DHT22;7090;49.436;8.490;2023-11-21T05:17:40;9.60;99.90
14031;DHT22;7090;49.436;8.490;2023-11-21T05:20:15;9.60;99.90
14031;DHT22;7090;49.436;8.490;2023-11-21T05:22:45;9.60;99.90
14031;DHT22;7090;49.436;8.490;2023-11-21T05:25:11;9.60;99.90
14031;DHT22;7090;49.436;8.490;2023-11-21T05:27:37;9.60;99.90
14031;DHT22;7090;49.436;8.490;2023-11-21T05:30:04;9.60;99.90
14031;DHT22;7090;49.436;8.490;2023-11-21T05:32:31;9.60;99.90
14031;DHT22;7090;49.436;8.490;2023-11-21T05:34:57;9.60;99.90
14031;DHT22;7090;49.436;8.490;2023-11-21T05:37:22;9.70;99.90
14031;DHT22;7090;49.436;8.490;2023-11-21T05:39:49;9.70;99.90
14031;DHT22;7090;49.436;8.490;2023-11-21T05:42:15;9.60;99.90
14031;DHT22;7090;49.436;8.490;2023-11-21T05:44:43;9.60;99.90
14031;DHT22;7090;49.436;8.490;2023-11-21T05:47:09;9.60;99.90
14031;DHT22;7090;49.436;8.490;2023-11-21T05:49:36;9.70;99.90
14031;DHT22;7090;49.436;8.490;2023-11-21T05:52:01;9.70;99.90
14031;DHT22;7090;49.436;8.490;2023-11-21T05:54:27;9.70;99.90
14031;DHT22;7090;49.436;8.490;2023-11-21T05:56:52;9.70;99.90
14031;DHT22;7090;49.436;8.490;2023-11-21T05:59:18;9.70;99.90
14031;DHT22;7090;49.436;8.490;2023-11-21T06:01:45;9.70;99.90
14031;DHT22;7090;49.436;8.490;2023-11-21T06:04:11;9.70;99.90
14031;DHT22;7090;49.436;8.490;2023-11-21T06:06:38;9.70;99.90
14031;DHT22;7090;49.436;8.490;2023-11-21T06:09:04;9.80;99.90
14031;DHT22;7090;49.436;8.490;2023-11-21T06:11:31;9.70;99.90
14031;DHT22;7090;49.436;8.490;2023-11-21T06:13:57;9.70;99.90
14031;DHT22;7090;49.436;8.490;2023-11-21T06:16:23;9.80;99.90
14031;DHT22;7090;49.436;8.490;2023-11-21T06:18:49;9.70;99.90
14031;DHT22;7090;49.436;8.490;2023-11-21T06:21:15;9.70;99.90
14031;DHT22;7090;49.436;8.490;2023-11-21T06:23:42;9.70;99.90
14031;DHT22;7090;49.436;8.490;2023-11-21T06:26:07;9.70;99.90
14031;DHT22;7090;49.436;8.490;2023-11-21T06:28:34;9.70;99.90
14031;DHT22;7090;49.436;8.490;2023-11-21T06:31:01;9.70;99.90
14031;DHT22;7090;49.436;8.490;2023-11-21T06:33:31;9.70;99.90
14031;DHT22;7090;49.436;8.490;2023-11-21T06:35:56;9.70;99.90
14031;DHT22;7090;49.436;8.490;2023-11-21T06:38:22;9.60;99.90
14031;DHT22;7090;49.436;8.490;2023-11-21T06:40:48;9.60;99.90
14031;DHT22;7090;49.436;8.490;2023-11-21T06:43:13;9.70;99.90
14031;DHT22;7090;49.436;8.490;2023-11-21T06:45:39;9.70;99.90
14031;DHT22;7090;49.436;8.490;2023-11-21T06:48:05;9.70;99.90
14031;DHT22;7090;49.436;8.490;2023-11-21T06:50:30;9.70;99.90
14031;DHT22;7090;49.436;8.490;2023-11-21T06:52:56;9.70;99.90
14031;DHT22;7090;49.436;8.490;2023-11-21T06:55:22;9.80;99.90
14031;DHT22;7090;49.436;8.490;2023-11-21T06:57:47;9.70;99.90
14031;DHT22;7090;49.436;8.490;2023-11-21T07:00:15;9.80;99.90
14031;DHT22;7090;49.436;8.490;2023-11-21T07:02:43;9.80;99.90
14031;DHT22;7090;49.436;8.490;2023-11-21T07:05:09;9.80;99.90
14031;DHT22;7090;49.436;8.490;2023-11-21T07:07:34;9.80;99.90
14031;DHT22;7090;49.436;8.490;2023-11-21T07:10:04;9.80;99.90
14031;DHT22;7090;49.436;8.490;2023-11-21T07:12:31;9.80;99.90
14031;DHT22;7090;49.436;8.490;2023-11-21T07:14:57;9.80;99.90
14031;DHT22;7090;49.436;8.490;2023-11-21T07:17:23;9.80;99.90
14031;DHT22;7090;49.436;8.490;2023-11-21T07:19:49;9.80;99.90
14031;DHT22;7090;49.436;8.490;2023-11-21T07:22:15;9.90;99.90
14031;DHT22;7090;49.436;8.490;2023-11-21T07:24:48;9.80;99.90
14031;DHT22;7090;49.436;8.490;2023-11-21T07:27:15;9.90;99.90
14031;DHT22;7090;49.436;8.490;2023-11-21T07:29:41;9.90;99.90
14031;DHT22;7090;49.436;8.490;2023-11-21T07:32:06;9.90;99.90
14031;DHT22;7090;49.436;8.490;2023-11-21T07:34:34;9.90;99.90
14031;DHT22;7090;49.436;8.490;2023-11-21T07:37:00;9.90;99.90
14031;DHT22;7090;49.436;8.490;2023-11-21T07:39:25;9.90;99.90
14031;DHT22;7090;49.436;8.490;2023-11-21T07:41:51;9.90;99.90
14031;DHT22;7090;49.436;8.490;2023-11-21T07:44:17;9.90;99.90
14031;DHT22;7090;49.436;8.490;2023-11-21T07:46:43;9.90;99.90
14031;DHT22;7090;49.436;8.490;2023-11-21T07:49:08;9.90;99.90
14031;DHT22;7090;49.436;8.490;2023-11-21T07:51:34;9.90;99.90
14031;DHT22;7090;49.436;8.490;2023-11-21T07:54:00;10.00;99.90
14031;DHT22;7090;49.436;8.490;2023-11-21T07:56:26;10.00;99.90
14031;DHT22;7090;49.436;8.490;2023-11-21T07:58:51;10.00;99.90
14031;DHT22;7090;49.436;8.490;2023-11-21T08:01:17;10.00;99.90
14031;DHT22;7090;49.436;8.490;2023-11-21T08:03:43;10.10;99.90
14031;DHT22;7090;49.436;8.490;2023-11-21T08:06:09;10.10;99.90
14031;DHT22;7090;49.436;8.490;2023-11-21T08:08:35;10.00;99.90
14031;DHT22;7090;49.436;8.490;2023-11-21T08:11:01;10.10;99.90
14031;DHT22;7090;49.436;8.490;2023-11-21T08:13:28;10.20;99.90
14031;DHT22;7090;49.436;8.490;2023-11-21T08:15:58;10.10;99.90
14031;DHT22;7090;49.436;8.490;2023-11-21T08:18:28;10.30;99.90
14031;DHT22;7090;49.436;8.490;2023-11-21T08:20:54;10.40;99.90
14031;DHT22;7090;49.436;8.490;2023-11-21T08:23:20;10.40;99.90
14031;DHT22;7090;49.436;8.490;2023-11-21T08:25:51;10.40;99.90
14031;DHT22;7090;49.436;8.490;2023-11-21T08:28:16;10.40;99.90
14031;DHT22;7090;49.436;8.490;2023-11-21T08:30:42;10.40;99.90
14031;DHT22;7090;49.436;8.490;2023-11-21T08:33:08;10.40;99.90
14031;DHT22;7090;49.436;8.490;2023-11-21T08:35:34;10.40;99.90
14031;DHT22;7090;49.436;8.490;2023-11-21T08:38:00;10.40;99.90
14031;DHT22;7090;49.436;8.490;2023-11-21T08:40:26;10.40;99.90
14031;DHT22;7090;49.436;8.490;2023-11-21T08:42:51;10.50;99.90
14031;DHT22;7090;49.436;8.490;2023-11-21T08:45:18;10.40;99.90
14031;DHT22;7090;49.436;8.490;2023-11-21T08:47:44;10.50;99.90
14031;DHT22;7090;49.436;8.490;2023-11-21T08:50:10;10.50;99.90
14031;DHT22;7090;49.436;8.490;2023-11-21T08:52:38;10.50;99.90
14031;DHT22;7090;49.436;8.490;2023-11-21T08:55:04;10.40;99.90
14031;DHT22;7090;49.436;8.490;2023-11-21T08:57:36;10.40;99.90
14031;DHT22;7090;49.436;8.490;2023-11-21T09:00:06;10.30;99.90
14031;DHT22;7090;49.436;8.490;2023-11-21T09:02:35;10.30;99.90
14031;DHT22;7090;49.436;8.490;2023-11-21T09:05:05;10.30;99.90
14031;DHT22;7090;49.436;8.490;2023-11-21T09:07:30;10.20;99.90
14031;DHT22;7090;49.436;8.490;2023-11-21T09:09:56;10.10;99.90
14031;DHT22;7090;49.436;8.490;2023-11-21T09:12:21;10.10;99.90
14031;DHT22;7090;49.436;8.490;2023-11-21T09:14:47;10.10;99.90
14031;DHT22;7090;49.436;8.490;2023-11-21T09:17:13;10.10;99.90
14031;DHT22;7090;49.436;8.490;2023-11-21T09:19:40;10.30;99.90
14031;DHT22;7090;49.436;8.490;2023-11-21T09:22:06;10.10;99.90
14031;DHT22;7090;49.436;8.490;2023-11-21T09:24:33;10.10;99.90
14031;DHT22;7090;49.436;8.490;2023-11-21T09:26:59;10.00;99.90
14031;DHT22;7090;49.436;8.490;2023-11-21T09:29:28;9.90;99.90
14031;DHT22;7090;49.436;8.490;2023-11-21T09:31:54;10.00;99.90
14031;DHT22;7090;49.436;8.490;2023-11-21T09:34:21;10.00;99.90
14031;DHT22;7090;49.436;8.490;2023-11-21T09:36:46;10.00;99.90
14031;DHT22;7090;49.436;8.490;2023-11-21T09:39:13;10.10;99.90
14031;DHT22;7090;49.436;8.490;2023-11-21T09:41:57;10.10;99.90
14031;DHT22;7090;49.436;8.490;2023-11-21T09:44:51;10.10;99.90
14031;DHT22;7090;49.436;8.490;2023-11-21T09:47:22;10.20;99.90
14031;DHT22;7090;49.436;8.490;2023-11-21T09:49:48;10.10;99.90
14031;DHT22;7090;49.436;8.490;2023-11-21T09:52:25;10.30;99.90
14031;DHT22;7090;49.436;8.490;2023-11-21T09:54:52;10.20;99.90
14031;DHT22;7090;49.436;8.490;2023-11-21T09:57:20;10.30;99.90
14031;DHT22;7090;49.436;8.490;2023-11-21T09:59:50;10.30;99.90
14031;DHT22;7090;49.436;8.490;2023-11-21T10:02:17;10.50;99.90
14031;DHT22;7090;49.436;8.490;2023-11-21T10:04:44;10.50;99.90
14031;DHT22;7090;49.436;8.490;2023-11-21T10:07:12;10.70;99.90
14031;DHT22;7090;49.436;8.490;2023-11-21T10:09:40;10.60;99.90
14031;DHT22;7090;49.436;8.490;2023-11-21T10:12:07;10.70;99.90
14031;DHT22;7090;49.436;8.490;2023-11-21T10:14:37;10.70;99.90
14031;DHT22;7090;49.436;8.490;2023-11-21T10:17:05;10.60;99.90
14031;DHT22;7090;49.436;8.490;2023-11-21T10:19:31;10.60;99.90
14031;DHT22;7090;49.436;8.490;2023-11-21T10:21:58;10.40;99.90
14031;DHT22;7090;49.436;8.490;2023-11-21T10:24:25;10.40;99.90
14031;DHT22;7090;49.436;8.490;2023-11-21T10:26:51;10.40;99.90
14031;DHT22;7090;49.436;8.490;2023-11-21T10:29:19;10.50;99.90
14031;DHT22;7090;49.436;8.490;2023-11-21T10:31:49;10.60;99.90
14031;DHT22;7090;49.436;8.490;2023-11-21T10:34:17;10.60;99.90
14031;DHT22;7090;49.436;8.490;2023-11-21T10:36:43;10.60;99.90
14031;DHT22;7090;49.436;8.490;2023-11-21T10:39:09;10.60;99.90
14031;DHT22;7090;49.436;8.490;2023-11-21T10:41:38;10.70;99.90
14031;DHT22;7090;49.436;8.490;2023-11-21T10:44:04;10.80;99.90
14031;DHT22;7090;49.436;8.490;2023-11-21T10:46:32;10.80;99.90
14031;DHT22;7090;49.436;8.490;2023-11-21T10:48:59;10.90;99.90
14031;DHT22;7090;49.436;8.490;2023-11-21T10:51:25;10.90;99.90
14031;DHT22;7090;49.436;8.490;2023-11-21T10:53:54;10.80;99.90
14031;DHT22;7090;49.436;8.490;2023-11-21T10:56:23;10.90;99.90
14031;DHT22;7090;49.436;8.490;2023-11-21T10:58:49;10.80;99.90
14031;DHT22;7090;49.436;8.490;2023-11-21T11:01:18;10.80;99.90
14031;DHT22;7090;49.436;8.490;2023-11-21T11:03:46;10.80;99.90
14031;DHT22;7090;49.436;8.490;2023-11-21T11:06:13;10.60;99.90
14031;DHT22;7090;49.436;8.490;2023-11-21T11:08:40;10.70;99.90
14031;DHT22;7090;49.436;8.490;2023-11-21T11:11:06;10.70;99.90
14031;DHT22;7090;49.436;8.490;2023-11-21T11:13:32;10.60;99.90
14031;DHT22;7090;49.436;8.490;2023-11-21T11:15:59;10.40;99.90
14031;DHT22;7090;49.436;8.490;2023-11-21T11:18:29;10.50;99.90
14031;DHT22;7090;49.436;8.490;2023-11-21T11:23:49;10.30;99.90
14031;DHT22;7090;49.436;8.490;2023-11-21T11:26:26;10.40;99.90
14031;DHT22;7090;49.436;8.490;2023-11-21T11:34:36;10.60;99.90
14031;DHT22;7090;49.436;8.490;2023-11-21T11:37:03;10.60;99.90
14031;DHT22;7090;49.436;8.490;2023-11-21T11:39:40;10.70;99.90
14031;DHT22;7090;49.436;8.490;2023-11-21T11:42:13;10.70;99.90
14031;DHT22;7090;49.436;8.490;2023-11-21T11:47:28;10.80;99.90
14031;DHT22;7090;49.436;8.490;2023-11-21T11:50:06;10.60;99.90
14031;DHT22;7090;49.436;8.490;2023-11-21T11:53:12;10.80;99.90
14031;DHT22;7090;49.436;8.490;2023-11-21T11:55:38;10.90;99.90
14031;DHT22;7090;49.436;8.490;2023-11-21T11:58:06;11.10;99.90
14031;DHT22;7090;49.436;8.490;2023-11-21T12:03:00;11.00;99.90
14031;DHT22;7090;49.436;8.490;2023-11-21T12:05:29;11.10;99.90
14031;DHT22;7090;49.436;8.490;2023-11-21T12:07:59;11.20;99.90
14031;DHT22;7090;49.436;8.490;2023-11-21T12:10:27;11.20;99.90
14031;DHT22;7090;49.436;8.490;2023-11-21T12:12:58;11.10;99.90
14031;DHT22;7090;49.436;8.490;2023-11-21T12:15:24;11.10;99.90
14031;DHT22;7090;49.436;8.490;2023-11-21T12:17:56;11.20;99.90
14031;DHT22;7090;49.436;8.490;2023-11-21T12:20:23;11.20;99.90
14031;DHT22;7090;49.436;8.490;2023-11-21T12:22:50;11.10;99.90
14031;DHT22;7090;49.436;8.490;2023-11-21T12:25:17;11.10;99.90
14031;DHT22;7090;49.436;8.490;2023-11-21T12:27:56;11.40;99.90
14031;DHT22;7090;49.436;8.490;2023-11-21T12:30:27;11.30;99.90
14031;DHT22;7090;49.436;8.490;2023-11-21T12:33:02;11.40;99.90
14031;DHT22;7090;49.436;8.490;2023-11-21T12:35:30;11.50;99.90
14031;DHT22;7090;49.436;8.490;2023-11-21T12:37:56;11.60;99.90
14031;DHT22;7090;49.436;8.490;2023-11-21T12:40:25;11.80;99.90
14031;DHT22;7090;49.436;8.490;2023-11-21T12:42:58;11.80;99.90
14031;DHT22;7090;49.436;8.490;2023-11-21T12:45:26;12.00;99.90
14031;DHT22;7090;49.436;8.490;2023-11-21T12:48:03;11.90;99.90
14031;DHT22;7090;49.436;8.490;2023-11-21T12:50:34;11.70;99.90
14031;DHT22;7090;49.436;8.490;2023-11-21T12:53:05;12.00;99.90
14031;DHT22;7090;49.436;8.490;2023-11-21T12:55:32;12.10;99.90
14031;DHT22;7090;49.436;8.490;2023-11-21T12:58:01;12.40;99.90
14031;DHT22;7090;49.436;8.490;2023-11-21T13:03:07;12.80;99.90
14031;DHT22;7090;49.436;8.490;2023-11-21T13:05:37;13.00;99.90
14031;DHT22;7090;49.436;8.490;2023-11-21T13:08:14;13.00;99.90
14031;DHT22;7090;49.436;8.490;2023-11-21T13:10:44;12.90;99.90
14031;DHT22;7090;49.436;8.490;2023-11-21T13:13:13;12.80;99.90
14031;DHT22;7090;49.436;8.490;2023-11-21T13:15:48;12.80;99.90
14031;DHT22;7090;49.436;8.490;2023-11-21T13:18:14;12.80;99.90
14031;DHT22;7090;49.436;8.490;2023-11-21T13:20:41;12.80;99.90
14031;DHT22;7090;49.436;8.490;2023-11-21T13:23:09;12.80;99.90
14031;DHT22;7090;49.436;8.490;2023-11-21T13:25:37;12.90;99.90
14031;DHT22;7090;49.436;8.490;2023-11-21T13:28:04;12.90;99.90
14031;DHT22;7090;49.436;8.490;2023-11-21T13:30:30;12.80;99.90
14031;DHT22;7090;49.436;8.490;2023-11-21T13:33:00;12.90;99.90
14031;DHT22;7090;49.436;8.490;2023-11-21T13:35:37;13.00;99.90
14031;DHT22;7090;49.436;8.490;2023-11-21T13:38:08;12.80;99.90
14031;DHT22;7090;49.436;8.490;2023-11-21T13:40:36;12.70;99.90
14031;DHT22;7090;49.436;8.490;2023-11-21T13:43:08;12.70;99.90
14031;DHT22;7090;49.436;8.490;2023-11-21T13:45:36;12.60;99.90
14031;DHT22;7090;49.436;8.490;2023-11-21T13:48:02;12.60;99.90
14031;DHT22;7090;49.436;8.490;2023-11-21T13:50:30;12.70;99.90
14031;DHT22;7090;49.436;8.490;2023-11-21T13:52:59;12.70;99.90
14031;DHT22;7090;49.436;8.490;2023-11-21T13:55:36;12.60;99.90
14031;DHT22;7090;49.436;8.490;2023-11-21T13:58:02;12.70;99.90
14031;DHT22;7090;49.436;8.490;2023-11-21T14:00:29;12.60;99.90
14031;DHT22;7090;49.436;8.490;2023-11-21T14:03:10;12.50;99.90
14031;DHT22;7090;49.436;8.490;2023-11-21T14:05:44;12.60;99.90
14031;DHT22;7090;49.436;8.490;2023-11-21T14:08:11;12.60;99.90
14031;DHT22;7090;49.436;8.490;2023-11-21T14:10:39;12.50;99.90
14031;DHT22;7090;49.436;8.490;2023-11-21T14:13:16;12.40;99.90
14031;DHT22;7090;49.436;8.490;2023-11-21T14:15:42;12.30;99.90
14031;DHT22;7090;49.436;8.490;2023-11-21T14:18:10;12.10;99.90
14031;DHT22;7090;49.436;8.490;2023-11-21T14:20:37;12.00;99.90
14031;DHT22;7090;49.436;8.490;2023-11-21T14:23:04;12.10;99.90
14031;DHT22;7090;49.436;8.490;2023-11-21T14:25:36;12.10;99.90
14031;DHT22;7090;49.436;8.490;2023-11-21T14:28:03;12.10;99.90
14031;DHT22;7090;49.436;8.490;2023-11-21T14:30:29;12.00;99.90
14031;DHT22;7090;49.436;8.490;2023-11-21T14:33:00;12.10;99.90
14031;DHT22;7090;49.436;8.490;2023-11-21T14:35:26;12.00;99.90
14031;DHT22;7090;49.436;8.490;2023-11-21T14:37:52;12.00;99.90
14031;DHT22;7090;49.436;8.490;2023-11-21T14:40:18;11.90;99.90
14031;DHT22;7090;49.436;8.490;2023-11-21T14:42:47;11.90;99.90
14031;DHT22;7090;49.436;8.490;2023-11-21T14:45:13;11.80;99.90
14031;DHT22;7090;49.436;8.490;2023-11-21T14:47:44;11.80;99.90
14031;DHT22;7090;49.436;8.490;2023-11-21T14:50:16;11.70;99.90
14031;DHT22;7090;49.436;8.490;2023-11-21T14:53:00;11.60;99.90
14031;DHT22;7090;49.436;8.490;2023-11-21T14:55:30;11.60;99.90
14031;DHT22;7090;49.436;8.490;2023-11-21T14:58:08;11.50;99.90
14031;DHT22;7090;49.436;8.490;2023-11-21T15:00:38;11.50;99.90
14031;DHT22;7090;49.436;8.490;2023-11-21T15:03:11;11.60;99.90
14031;DHT22;7090;49.436;8.490;2023-11-21T15:05:52;11.50;99.90
14031;DHT22;7090;49.436;8.490;2023-11-21T15:08:19;11.50;99.90
14031;DHT22;7090;49.436;8.490;2023-11-21T15:10:52;11.40;99.90
14031;DHT22;7090;49.436;8.490;2023-11-21T15:13:20;11.40;99.90
14031;DHT22;7090;49.436;8.490;2023-11-21T15:15:47;11.40;99.90
14031;DHT22;7090;49.436;8.490;2023-11-21T15:18:13;11.40;99.90
14031;DHT22;7090;49.436;8.490;2023-11-21T15:20:41;11.40;99.90
14031;DHT22;7090;49.436;8.490;2023-11-21T15:23:08;11.40;99.90
14031;DHT22;7090;49.436;8.490;2023-11-21T15:25:34;11.40;99.90
14031;DHT22;7090;49.436;8.490;2023-11-21T15:28:01;11.30;99.90
14031;DHT22;7090;49.436;8.490;2023-11-21T15:30:28;11.30;99.90
14031;DHT22;7090;49.436;8.490;2023-11-21T15:32:57;11.30;99.90
14031;DHT22;7090;49.436;8.490;2023-11-21T15:35:23;11.20;99.90
14031;DHT22;7090;49.436;8.490;2023-11-21T15:37:49;11.20;99.90
14031;DHT22;7090;49.436;8.490;2023-11-21T15:40:14;11.20;99.90
14031;DHT22;7090;49.436;8.490;2023-11-21T15:42:42;11.20;99.90
14031;DHT22;7090;49.436;8.490;2023-11-21T15:45:08;11.20;99.90
14031;DHT22;7090;49.436;8.490;2023-11-21T15:47:34;11.10;99.90
14031;DHT22;7090;49.436;8.490;2023-11-21T15:50:00;11.10;99.90
14031;DHT22;7090;49.436;8.490;2023-11-21T15:52:26;11.10;99.90
14031;DHT22;7090;49.436;8.490;2023-11-21T15:54:54;11.00;99.90
14031;DHT22;7090;49.436;8.490;2023-11-21T15:57:19;11.00;99.90
14031;DHT22;7090;49.436;8.490;2023-11-21T15:59:47;11.00;99.90
14031;DHT22;7090;49.436;8.490;2023-11-21T16:02:13;11.00;99.90
14031;DHT22;7090;49.436;8.490;2023-11-21T16:04:41;10.90;99.90
14031;DHT22;7090;49.436;8.490;2023-11-21T16:07:08;10.90;99.90
14031;DHT22;7090;49.436;8.490;2023-11-21T16:09:35;10.90;99.90
14031;DHT22;7090;49.436;8.490;2023-11-21T16:12:04;10.90;99.90